sensor_id;sensor_type;location;lat;lon;timestamp;P1;durP1;ratioP1;P2;durP2;ratioP2
74945;SDS011;63509;45.250;38.102;2022-11-11T00:00:10;30.02;;;9.65;;
74945;SDS011;63509;45.250;38.102;2022-11-11T00:02:56;20.95;;;8.57;;
74945;SDS011;63509;45.250;38.102;2022-11-11T00:05:41;17.48;;;8.45;;
74945;SDS011;63509;45.250;38.102;2022-11-11T00:08:26;16.55;;;8.68;;
74945;SDS011;63509;45.250;38.102;2022-11-11T00:11:11;16.33;;;8.55;;
74945;SDS011;63509;45.250;38.102;2022-11-11T00:13:56;21.73;;;9.00;;
74945;SDS011;63509;45.250;38.102;2022-11-11T00:16:40;13.55;;;8.82;;
74945;SDS011;63509;45.250;38.102;2022-11-11T00:19:43;16.00;;;8.65;;
74945;SDS011;63509;45.250;38.102;2022-11-11T00:22:46;17.73;;;8.38;;
74945;SDS011;63509;45.250;38.102;2022-11-11T00:25:50;15.95;;;7.80;;
74945;SDS011;63509;45.250;38.102;2022-11-11T00:28:37;17.83;;;9.40;;
74945;SDS011;63509;45.250;38.102;2022-11-11T00:31:22;17.65;;;8.98;;
74945;SDS011;63509;45.250;38.102;2022-11-11T00:34:07;14.35;;;8.82;;
74945;SDS011;63509;45.250;38.102;2022-11-11T00:36:52;16.42;;;8.95;;
74945;SDS011;63509;45.250;38.102;2022-11-11T00:39:36;19.85;;;8.80;;
74945;SDS011;63509;45.250;38.102;2022-11-11T00:42:21;14.90;;;8.80;;
74945;SDS011;63509;45.250;38.102;2022-11-11T00:45:05;23.75;;;9.70;;
74945;SDS011;63509;45.250;38.102;2022-11-11T00:47:50;30.02;;;10.80;;
74945;SDS011;63509;45.250;38.102;2022-11-11T00:50:53;27.75;;;12.55;;
74945;SDS011;63509;45.250;38.102;2022-11-11T00:53:41;37.60;;;17.23;;
74945;SDS011;63509;45.250;38.102;2022-11-11T00:56:26;30.23;;;14.90;;
74945;SDS011;63509;45.250;38.102;2022-11-11T00:59:11;36.30;;;14.52;;
74945;SDS011;63509;45.250;38.102;2022-11-11T01:01:55;24.88;;;11.90;;
74945;SDS011;63509;45.250;38.102;2022-11-11T01:04:40;27.48;;;13.27;;
74945;SDS011;63509;45.250;38.102;2022-11-11T01:07:24;33.58;;;14.25;;
74945;SDS011;63509;45.250;38.102;2022-11-11T01:10:09;37.72;;;15.10;;
74945;SDS011;63509;45.250;38.102;2022-11-11T01:12:54;33.78;;;14.07;;
74945;SDS011;63509;45.250;38.102;2022-11-11T01:15:59;49.15;;;19.13;;
74945;SDS011;63509;45.250;38.102;2022-11-11T01:18:46;57.70;;;24.38;;
74945;SDS011;63509;45.250;38.102;2022-11-11T01:21:30;55.22;;;23.80;;
74945;SDS011;63509;45.250;38.102;2022-11-11T01:24:15;58.22;;;24.42;;
74945;SDS011;63509;45.250;38.102;2022-11-11T01:26:59;66.95;;;26.63;;
74945;SDS011;63509;45.250;38.102;2022-11-11T01:29:44;60.53;;;25.38;;
74945;SDS011;63509;45.250;38.102;2022-11-11T01:32:29;71.63;;;25.50;;
74945;SDS011;63509;45.250;38.102;2022-11-11T01:35:14;89.55;;;23.55;;
74945;SDS011;63509;45.250;38.102;2022-11-11T01:37:58;53.92;;;20.98;;
74945;SDS011;63509;45.250;38.102;2022-11-11T01:40:44;40.17;;;17.02;;
74945;SDS011;63509;45.250;38.102;2022-11-11T01:43:30;50.95;;;18.60;;
74945;SDS011;63509;45.250;38.102;2022-11-11T01:49:49;92.40;;;33.08;;
74945;SDS011;63509;45.250;38.102;2022-11-11T01:52:37;77.47;;;33.85;;
74945;SDS011;63509;45.250;38.102;2022-11-11T01:55:25;60.33;;;24.08;;
74945;SDS011;63509;45.250;38.102;2022-11-11T01:58:10;64.68;;;26.10;;
74945;SDS011;63509;45.250;38.102;2022-11-11T02:00:58;86.82;;;29.23;;
74945;SDS011;63509;45.250;38.102;2022-11-11T02:03:43;85.15;;;32.60;;
74945;SDS011;63509;45.250;38.102;2022-11-11T02:06:51;64.30;;;26.02;;
74945;SDS011;63509;45.250;38.102;2022-11-11T02:09:38;62.95;;;24.23;;
74945;SDS011;63509;45.250;38.102;2022-11-11T02:12:25;46.58;;;20.30;;
74945;SDS011;63509;45.250;38.102;2022-11-11T02:15:28;39.42;;;18.15;;
74945;SDS011;63509;45.250;38.102;2022-11-11T02:18:13;65.28;;;28.45;;
74945;SDS011;63509;45.250;38.102;2022-11-11T02:20:58;60.80;;;26.35;;
74945;SDS011;63509;45.250;38.102;2022-11-11T02:24:02;41.50;;;19.00;;
74945;SDS011;63509;45.250;38.102;2022-11-11T02:26:52;35.58;;;12.52;;
74945;SDS011;63509;45.250;38.102;2022-11-11T02:29:38;19.25;;;9.90;;
74945;SDS011;63509;45.250;38.102;2022-11-11T02:32:24;28.05;;;12.82;;
74945;SDS011;63509;45.250;38.102;2022-11-11T02:35:14;18.95;;;10.43;;
74945;SDS011;63509;45.250;38.102;2022-11-11T02:38:07;40.17;;;16.58;;
74945;SDS011;63509;45.250;38.102;2022-11-11T02:40:56;83.22;;;25.80;;
74945;SDS011;63509;45.250;38.102;2022-11-11T02:43:59;36.55;;;15.88;;
74945;SDS011;63509;45.250;38.102;2022-11-11T02:46:44;22.10;;;10.75;;
74945;SDS011;63509;45.250;38.102;2022-11-11T02:49:29;33.15;;;14.05;;
74945;SDS011;63509;45.250;38.102;2022-11-11T02:52:14;56.65;;;15.35;;
74945;SDS011;63509;45.250;38.102;2022-11-11T02:54:58;50.53;;;14.80;;
74945;SDS011;63509;45.250;38.102;2022-11-11T02:57:43;47.70;;;17.20;;
74945;SDS011;63509;45.250;38.102;2022-11-11T03:00:28;46.45;;;16.27;;
74945;SDS011;63509;45.250;38.102;2022-11-11T03:03:13;48.22;;;18.58;;
74945;SDS011;63509;45.250;38.102;2022-11-11T03:05:57;36.13;;;16.88;;
74945;SDS011;63509;45.250;38.102;2022-11-11T03:08:42;73.60;;;20.95;;
74945;SDS011;63509;45.250;38.102;2022-11-11T03:11:26;51.00;;;20.00;;
74945;SDS011;63509;45.250;38.102;2022-11-11T03:14:11;37.42;;;18.45;;
74945;SDS011;63509;45.250;38.102;2022-11-11T03:16:55;61.38;;;23.55;;
74945;SDS011;63509;45.250;38.102;2022-11-11T03:20:19;68.20;;;26.48;;
74945;SDS011;63509;45.250;38.102;2022-11-11T03:23:22;64.13;;;22.25;;
74945;SDS011;63509;45.250;38.102;2022-11-11T03:26:07;62.75;;;22.83;;
74945;SDS011;63509;45.250;38.102;2022-11-11T03:28:51;61.63;;;20.67;;
74945;SDS011;63509;45.250;38.102;2022-11-11T03:31:36;76.28;;;20.70;;
74945;SDS011;63509;45.250;38.102;2022-11-11T03:34:21;48.17;;;15.52;;
74945;SDS011;63509;45.250;38.102;2022-11-11T03:37:06;56.55;;;16.67;;
74945;SDS011;63509;45.250;38.102;2022-11-11T03:40:11;46.28;;;16.73;;
74945;SDS011;63509;45.250;38.102;2022-11-11T03:42:56;41.15;;;14.98;;
74945;SDS011;63509;45.250;38.102;2022-11-11T03:45:41;29.75;;;13.80;;
74945;SDS011;63509;45.250;38.102;2022-11-11T03:48:28;28.73;;;12.35;;
74945;SDS011;63509;45.250;38.102;2022-11-11T03:53:58;52.55;;;19.02;;
74945;SDS011;63509;45.250;38.102;2022-11-11T03:56:43;47.20;;;20.95;;
74945;SDS011;63509;45.250;38.102;2022-11-11T03:59:28;51.38;;;20.92;;
74945;SDS011;63509;45.250;38.102;2022-11-11T04:02:13;56.17;;;16.92;;
74945;SDS011;63509;45.250;38.102;2022-11-11T04:05:20;51.45;;;18.90;;
74945;SDS011;63509;45.250;38.102;2022-11-11T04:08:24;80.47;;;23.77;;
74945;SDS011;63509;45.250;38.102;2022-11-11T04:11:31;53.65;;;23.77;;
74945;SDS011;63509;45.250;38.102;2022-11-11T04:14:36;41.70;;;19.60;;
74945;SDS011;63509;45.250;38.102;2022-11-11T04:17:39;35.00;;;14.77;;
74945;SDS011;63509;45.250;38.102;2022-11-11T04:20:24;18.75;;;10.25;;
74945;SDS011;63509;45.250;38.102;2022-11-11T04:23:27;28.73;;;10.00;;
74945;SDS011;63509;45.250;38.102;2022-11-11T04:26:11;25.42;;;9.55;;
74945;SDS011;63509;45.250;38.102;2022-11-11T04:28:56;30.30;;;8.70;;
74945;SDS011;63509;45.250;38.102;2022-11-11T04:32:00;16.75;;;7.78;;
74945;SDS011;63509;45.250;38.102;2022-11-11T04:35:11;13.85;;;6.38;;
74945;SDS011;63509;45.250;38.102;2022-11-11T04:37:56;16.00;;;6.95;;
74945;SDS011;63509;45.250;38.102;2022-11-11T04:41:01;14.27;;;6.80;;
74945;SDS011;63509;45.250;38.102;2022-11-11T04:43:48;13.95;;;7.43;;
74945;SDS011;63509;45.250;38.102;2022-11-11T04:46:51;15.25;;;7.80;;
74945;SDS011;63509;45.250;38.102;2022-11-11T04:49:36;12.40;;;6.75;;
74945;SDS011;63509;45.250;38.102;2022-11-11T04:52:20;11.88;;;6.07;;
74945;SDS011;63509;45.250;38.102;2022-11-11T04:55:12;11.60;;;6.47;;
74945;SDS011;63509;45.250;38.102;2022-11-11T04:58:18;16.02;;;6.85;;
74945;SDS011;63509;45.250;38.102;2022-11-11T05:01:04;13.45;;;6.53;;
74945;SDS011;63509;45.250;38.102;2022-11-11T05:03:49;17.98;;;8.27;;
74945;SDS011;63509;45.250;38.102;2022-11-11T05:06:33;12.02;;;6.47;;
74945;SDS011;63509;45.250;38.102;2022-11-11T05:09:37;16.35;;;6.75;;
74945;SDS011;63509;45.250;38.102;2022-11-11T05:12:21;17.08;;;7.43;;
74945;SDS011;63509;45.250;38.102;2022-11-11T05:15:06;10.60;;;6.38;;
74945;SDS011;63509;45.250;38.102;2022-11-11T05:18:10;10.43;;;5.97;;
74945;SDS011;63509;45.250;38.102;2022-11-11T05:21:14;16.38;;;7.15;;
74945;SDS011;63509;45.250;38.102;2022-11-11T05:24:05;15.73;;;7.22;;
74945;SDS011;63509;45.250;38.102;2022-11-11T05:27:08;13.13;;;6.10;;
74945;SDS011;63509;45.250;38.102;2022-11-11T05:29:53;12.02;;;7.03;;
74945;SDS011;63509;45.250;38.102;2022-11-11T05:32:38;14.43;;;7.47;;
74945;SDS011;63509;45.250;38.102;2022-11-11T05:35:23;13.82;;;7.57;;
74945;SDS011;63509;45.250;38.102;2022-11-11T05:38:08;18.42;;;8.18;;
74945;SDS011;63509;45.250;38.102;2022-11-11T05:41:04;17.88;;;6.63;;
74945;SDS011;63509;45.250;38.102;2022-11-11T05:43:49;15.85;;;6.60;;
74945;SDS011;63509;45.250;38.102;2022-11-11T05:46:34;13.38;;;7.22;;
74945;SDS011;63509;45.250;38.102;2022-11-11T05:49:18;12.07;;;7.18;;
74945;SDS011;63509;45.250;38.102;2022-11-11T05:52:03;15.30;;;6.85;;
74945;SDS011;63509;45.250;38.102;2022-11-11T05:54:48;15.10;;;6.40;;
74945;SDS011;63509;45.250;38.102;2022-11-11T05:57:33;13.68;;;7.03;;
74945;SDS011;63509;45.250;38.102;2022-11-11T06:00:18;14.15;;;7.55;;
74945;SDS011;63509;45.250;38.102;2022-11-11T06:03:03;14.55;;;6.60;;
74945;SDS011;63509;45.250;38.102;2022-11-11T06:05:51;16.83;;;7.65;;
74945;SDS011;63509;45.250;38.102;2022-11-11T06:08:36;18.20;;;5.80;;
74945;SDS011;63509;45.250;38.102;2022-11-11T06:11:20;15.30;;;6.57;;
74945;SDS011;63509;45.250;38.102;2022-11-11T06:14:05;17.42;;;7.93;;
74945;SDS011;63509;45.250;38.102;2022-11-11T06:16:50;16.70;;;7.15;;
74945;SDS011;63509;45.250;38.102;2022-11-11T06:19:35;23.63;;;8.40;;
74945;SDS011;63509;45.250;38.102;2022-11-11T06:22:19;23.40;;;8.05;;
74945;SDS011;63509;45.250;38.102;2022-11-11T06:25:24;19.05;;;6.20;;
74945;SDS011;63509;45.250;38.102;2022-11-11T06:28:29;16.35;;;7.30;;
74945;SDS011;63509;45.250;38.102;2022-11-11T06:31:24;21.42;;;8.95;;
74945;SDS011;63509;45.250;38.102;2022-11-11T06:34:09;20.08;;;9.57;;
74945;SDS011;63509;45.250;38.102;2022-11-11T06:36:54;36.88;;;8.75;;
74945;SDS011;63509;45.250;38.102;2022-11-11T06:39:38;21.50;;;8.52;;
74945;SDS011;63509;45.250;38.102;2022-11-11T06:42:23;21.10;;;9.18;;
74945;SDS011;63509;45.250;38.102;2022-11-11T06:45:07;16.20;;;7.45;;
74945;SDS011;63509;45.250;38.102;2022-11-11T06:47:52;17.23;;;7.40;;
74945;SDS011;63509;45.250;38.102;2022-11-11T06:50:37;58.28;;;9.23;;
74945;SDS011;63509;45.250;38.102;2022-11-11T06:53:21;245.48;;;124.47;;
74945;SDS011;63509;45.250;38.102;2022-11-11T06:56:06;71.35;;;40.72;;
74945;SDS011;63509;45.250;38.102;2022-11-11T06:58:51;29.98;;;10.25;;
74945;SDS011;63509;45.250;38.102;2022-11-11T07:01:36;38.20;;;10.13;;
74945;SDS011;63509;45.250;38.102;2022-11-11T07:04:20;23.40;;;8.70;;
74945;SDS011;63509;45.250;38.102;2022-11-11T07:07:05;18.33;;;7.03;;
74945;SDS011;63509;45.250;38.102;2022-11-11T07:09:49;17.05;;;7.70;;
74945;SDS011;63509;45.250;38.102;2022-11-11T07:12:34;20.77;;;7.60;;
74945;SDS011;63509;45.250;38.102;2022-11-11T07:15:19;33.85;;;11.07;;
74945;SDS011;63509;45.250;38.102;2022-11-11T07:18:03;18.73;;;8.68;;
74945;SDS011;63509;45.250;38.102;2022-11-11T07:20:48;21.73;;;8.05;;
74945;SDS011;63509;45.250;38.102;2022-11-11T07:23:33;36.67;;;8.25;;
74945;SDS011;63509;45.250;38.102;2022-11-11T07:26:17;25.05;;;8.65;;
74945;SDS011;63509;45.250;38.102;2022-11-11T07:29:02;17.52;;;8.68;;
74945;SDS011;63509;45.250;38.102;2022-11-11T07:31:46;13.88;;;6.82;;
74945;SDS011;63509;45.250;38.102;2022-11-11T07:34:31;20.83;;;8.00;;
74945;SDS011;63509;45.250;38.102;2022-11-11T07:37:16;231.60;;;23.20;;
74945;SDS011;63509;45.250;38.102;2022-11-11T07:40:00;35.72;;;8.60;;
74945;SDS011;63509;45.250;38.102;2022-11-11T07:42:45;65.07;;;24.70;;
74945;SDS011;63509;45.250;38.102;2022-11-11T07:45:30;45.83;;;15.02;;
74945;SDS011;63509;45.250;38.102;2022-11-11T07:48:14;20.17;;;7.25;;
74945;SDS011;63509;45.250;38.102;2022-11-11T07:50:59;24.40;;;8.52;;
74945;SDS011;63509;45.250;38.102;2022-11-11T07:53:44;18.20;;;8.68;;
74945;SDS011;63509;45.250;38.102;2022-11-11T07:56:29;15.23;;;7.88;;
74945;SDS011;63509;45.250;38.102;2022-11-11T07:59:14;19.02;;;9.23;;
74945;SDS011;63509;45.250;38.102;2022-11-11T08:01:58;21.70;;;10.45;;
74945;SDS011;63509;45.250;38.102;2022-11-11T08:04:43;127.40;;;15.73;;
74945;SDS011;63509;45.250;38.102;2022-11-11T08:07:29;20.83;;;8.70;;
74945;SDS011;63509;45.250;38.102;2022-11-11T08:10:13;16.60;;;8.52;;
74945;SDS011;63509;45.250;38.102;2022-11-11T08:12:59;130.23;;;16.65;;
74945;SDS011;63509;45.250;38.102;2022-11-11T08:16:02;22.65;;;9.10;;
74945;SDS011;63509;45.250;38.102;2022-11-11T08:18:50;21.30;;;8.82;;
74945;SDS011;63509;45.250;38.102;2022-11-11T08:21:36;15.68;;;8.02;;
74945;SDS011;63509;45.250;38.102;2022-11-11T08:24:20;16.85;;;8.70;;
74945;SDS011;63509;45.250;38.102;2022-11-11T08:27:05;26.75;;;9.55;;
74945;SDS011;63509;45.250;38.102;2022-11-11T08:29:50;13.45;;;7.40;;
74945;SDS011;63509;45.250;38.102;2022-11-11T08:32:35;19.85;;;8.50;;
74945;SDS011;63509;45.250;38.102;2022-11-11T08:35:19;16.30;;;7.55;;
74945;SDS011;63509;45.250;38.102;2022-11-11T08:38:04;91.57;;;14.90;;
74945;SDS011;63509;45.250;38.102;2022-11-11T08:40:49;22.95;;;8.32;;
74945;SDS011;63509;45.250;38.102;2022-11-11T08:43:35;14.32;;;7.60;;
74945;SDS011;63509;45.250;38.102;2022-11-11T08:46:19;17.35;;;8.98;;
74945;SDS011;63509;45.250;38.102;2022-11-11T08:49:04;52.38;;;13.52;;
74945;SDS011;63509;45.250;38.102;2022-11-11T08:51:49;15.10;;;7.97;;
74945;SDS011;63509;45.250;38.102;2022-11-11T08:54:33;83.15;;;12.57;;
74945;SDS011;63509;45.250;38.102;2022-11-11T08:57:17;28.88;;;9.60;;
74945;SDS011;63509;45.250;38.102;2022-11-11T09:00:03;15.10;;;7.53;;
74945;SDS011;63509;45.250;38.102;2022-11-11T09:02:49;87.10;;;15.00;;
74945;SDS011;63509;45.250;38.102;2022-11-11T09:05:36;21.88;;;8.98;;
74945;SDS011;63509;45.250;38.102;2022-11-11T09:08:22;17.83;;;7.15;;
74945;SDS011;63509;45.250;38.102;2022-11-11T09:11:06;27.88;;;12.45;;
74945;SDS011;63509;45.250;38.102;2022-11-11T09:13:51;42.55;;;20.73;;
74945;SDS011;63509;45.250;38.102;2022-11-11T09:16:35;25.30;;;11.00;;
74945;SDS011;63509;45.250;38.102;2022-11-11T09:19:20;22.92;;;8.98;;
74945;SDS011;63509;45.250;38.102;2022-11-11T09:22:05;13.77;;;7.72;;
74945;SDS011;63509;45.250;38.102;2022-11-11T09:24:49;15.65;;;9.25;;
74945;SDS011;63509;45.250;38.102;2022-11-11T09:27:34;14.65;;;8.02;;
74945;SDS011;63509;45.250;38.102;2022-11-11T09:30:19;41.00;;;9.80;;
74945;SDS011;63509;45.250;38.102;2022-11-11T09:33:04;15.90;;;8.07;;
74945;SDS011;63509;45.250;38.102;2022-11-11T09:35:48;23.83;;;8.25;;
74945;SDS011;63509;45.250;38.102;2022-11-11T09:38:33;15.93;;;8.30;;
74945;SDS011;63509;45.250;38.102;2022-11-11T09:41:21;14.88;;;7.95;;
74945;SDS011;63509;45.250;38.102;2022-11-11T09:44:53;24.23;;;8.32;;
74945;SDS011;63509;45.250;38.102;2022-11-11T09:51:39;15.77;;;8.35;;
74945;SDS011;63509;45.250;38.102;2022-11-11T09:54:56;18.15;;;7.25;;
74945;SDS011;63509;45.250;38.102;2022-11-11T10:00:33;16.35;;;7.72;;
74945;SDS011;63509;45.250;38.102;2022-11-11T10:03:22;18.08;;;8.55;;
74945;SDS011;63509;45.250;38.102;2022-11-11T10:06:16;15.30;;;8.23;;
74945;SDS011;63509;45.250;38.102;2022-11-11T10:12:14;19.73;;;8.65;;
74945;SDS011;63509;45.250;38.102;2022-11-11T10:15:00;16.92;;;9.50;;
74945;SDS011;63509;45.250;38.102;2022-11-11T10:20:53;20.73;;;10.05;;
74945;SDS011;63509;45.250;38.102;2022-11-11T10:23:39;20.67;;;10.00;;
74945;SDS011;63509;45.250;38.102;2022-11-11T10:26:35;22.08;;;9.23;;
74945;SDS011;63509;45.250;38.102;2022-11-11T10:29:23;18.17;;;9.93;;
74945;SDS011;63509;45.250;38.102;2022-11-11T10:41:22;17.77;;;8.98;;
74945;SDS011;63509;45.250;38.102;2022-11-11T10:44:26;17.70;;;9.35;;
74945;SDS011;63509;45.250;38.102;2022-11-11T10:47:18;17.30;;;8.82;;
74945;SDS011;63509;45.250;38.102;2022-11-11T10:50:25;15.63;;;8.57;;
74945;SDS011;63509;45.250;38.102;2022-11-11T10:56:38;18.85;;;9.55;;
74945;SDS011;63509;45.250;38.102;2022-11-11T10:59:51;22.13;;;10.75;;
74945;SDS011;63509;45.250;38.102;2022-11-11T11:06:04;23.55;;;11.63;;
74945;SDS011;63509;45.250;38.102;2022-11-11T11:08:54;29.38;;;11.57;;
74945;SDS011;63509;45.250;38.102;2022-11-11T11:11:52;19.55;;;9.48;;
74945;SDS011;63509;45.250;38.102;2022-11-11T11:14:41;19.85;;;10.68;;
74945;SDS011;63509;45.250;38.102;2022-11-11T11:17:36;16.30;;;9.65;;
74945;SDS011;63509;45.250;38.102;2022-11-11T11:20:26;19.42;;;10.27;;
74945;SDS011;63509;45.250;38.102;2022-11-11T11:23:10;19.65;;;9.23;;
74945;SDS011;63509;45.250;38.102;2022-11-11T11:25:55;27.83;;;13.75;;
74945;SDS011;63509;45.250;38.102;2022-11-11T11:31:38;20.63;;;10.68;;
74945;SDS011;63509;45.250;38.102;2022-11-11T11:34:41;24.38;;;12.55;;
74945;SDS011;63509;45.250;38.102;2022-11-11T11:37:33;22.85;;;11.25;;
74945;SDS011;63509;45.250;38.102;2022-11-11T11:40:51;25.67;;;12.38;;
74945;SDS011;63509;45.250;38.102;2022-11-11T11:43:39;22.60;;;11.63;;
74945;SDS011;63509;45.250;38.102;2022-11-11T11:46:34;21.27;;;11.55;;
74945;SDS011;63509;45.250;38.102;2022-11-11T11:49:27;29.85;;;12.13;;
74945;SDS011;63509;45.250;38.102;2022-11-11T11:55:53;28.35;;;14.23;;
74945;SDS011;63509;45.250;38.102;2022-11-11T11:58:55;35.72;;;14.55;;
74945;SDS011;63509;45.250;38.102;2022-11-11T12:11:00;33.08;;;15.57;;
74945;SDS011;63509;45.250;38.102;2022-11-11T12:20:08;30.60;;;14.18;;
74945;SDS011;63509;45.250;38.102;2022-11-11T12:26:07;26.17;;;12.88;;
74945;SDS011;63509;45.250;38.102;2022-11-11T12:35:46;38.53;;;15.90;;
74945;SDS011;63509;45.250;38.102;2022-11-11T12:38:57;38.97;;;14.38;;
74945;SDS011;63509;45.250;38.102;2022-11-11T12:42:03;121.47;;;17.95;;
74945;SDS011;63509;45.250;38.102;2022-11-11T12:50:50;37.45;;;13.85;;
74945;SDS011;63509;45.250;38.102;2022-11-11T12:59:42;36.50;;;16.73;;
74945;SDS011;63509;45.250;38.102;2022-11-11T13:17:23;39.40;;;18.33;;
74945;SDS011;63509;45.250;38.102;2022-11-11T13:23:17;32.28;;;14.48;;
74945;SDS011;63509;45.250;38.102;2022-11-11T13:26:02;33.25;;;12.88;;
74945;SDS011;63509;45.250;38.102;2022-11-11T13:29:02;34.20;;;15.48;;
74945;SDS011;63509;45.250;38.102;2022-11-11T13:32:01;37.00;;;16.27;;
74945;SDS011;63509;45.250;38.102;2022-11-11T13:34:49;36.03;;;15.00;;
74945;SDS011;63509;45.250;38.102;2022-11-11T13:37:35;30.95;;;15.60;;
74945;SDS011;63509;45.250;38.102;2022-11-11T13:40:34;34.17;;;16.67;;
74945;SDS011;63509;45.250;38.102;2022-11-11T13:46:43;36.65;;;15.70;;
74945;SDS011;63509;45.250;38.102;2022-11-11T13:49:34;34.03;;;15.80;;
74945;SDS011;63509;45.250;38.102;2022-11-11T13:55:48;48.17;;;17.80;;
74945;SDS011;63509;45.250;38.102;2022-11-11T14:01:23;44.13;;;16.55;;
74945;SDS011;63509;45.250;38.102;2022-11-11T14:04:09;36.88;;;15.88;;
74945;SDS011;63509;45.250;38.102;2022-11-11T14:06:54;180.15;;;25.27;;
74945;SDS011;63509;45.250;38.102;2022-11-11T14:09:52;155.10;;;22.50;;
74945;SDS011;63509;45.250;38.102;2022-11-11T14:12:40;91.97;;;20.88;;
74945;SDS011;63509;45.250;38.102;2022-11-11T14:15:38;88.70;;;21.90;;
74945;SDS011;63509;45.250;38.102;2022-11-11T14:24:32;42.50;;;18.70;;
74945;SDS011;63509;45.250;38.102;2022-11-11T14:27:20;40.08;;;17.02;;
74945;SDS011;63509;45.250;38.102;2022-11-11T14:30:25;96.65;;;19.42;;
74945;SDS011;63509;45.250;38.102;2022-11-11T15:00:43;90.50;;;18.83;;
74945;SDS011;63509;45.250;38.102;2022-11-11T15:06:23;34.10;;;15.75;;
74945;SDS011;63509;45.250;38.102;2022-11-11T15:12:29;40.10;;;15.55;;
74945;SDS011;63509;45.250;38.102;2022-11-11T15:38:10;41.83;;;18.85;;
74945;SDS011;63509;45.250;38.102;2022-11-11T15:40:57;45.67;;;18.95;;
74945;SDS011;63509;45.250;38.102;2022-11-11T15:43:43;50.42;;;17.80;;
74945;SDS011;63509;45.250;38.102;2022-11-11T15:46:28;51.47;;;17.73;;
74945;SDS011;63509;45.250;38.102;2022-11-11T15:49:35;68.70;;;34.00;;
74945;SDS011;63509;45.250;38.102;2022-11-11T15:55:19;83.15;;;40.55;;
74945;SDS011;63509;45.250;38.102;2022-11-11T15:58:10;69.18;;;32.72;;
74945;SDS011;63509;45.250;38.102;2022-11-11T16:00:59;50.47;;;27.05;;
74945;SDS011;63509;45.250;38.102;2022-11-11T16:03:47;61.40;;;28.98;;
74945;SDS011;63509;45.250;38.102;2022-11-11T16:06:31;68.30;;;28.30;;
74945;SDS011;63509;45.250;38.102;2022-11-11T16:09:23;61.35;;;28.33;;
74945;SDS011;63509;45.250;38.102;2022-11-11T16:12:09;51.60;;;25.70;;
74945;SDS011;63509;45.250;38.102;2022-11-11T16:14:55;74.63;;;30.63;;
74945;SDS011;63509;45.250;38.102;2022-11-11T16:17:42;62.25;;;29.20;;
74945;SDS011;63509;45.250;38.102;2022-11-11T16:20:32;72.88;;;33.42;;
74945;SDS011;63509;45.250;38.102;2022-11-11T16:23:24;68.70;;;32.58;;
74945;SDS011;63509;45.250;38.102;2022-11-11T16:26:10;77.90;;;37.10;;
74945;SDS011;63509;45.250;38.102;2022-11-11T16:28:56;81.68;;;40.33;;
74945;SDS011;63509;45.250;38.102;2022-11-11T16:31:42;91.15;;;41.83;;
74945;SDS011;63509;45.250;38.102;2022-11-11T16:37:12;85.63;;;42.33;;
74945;SDS011;63509;45.250;38.102;2022-11-11T16:43:20;83.88;;;41.78;;
74945;SDS011;63509;45.250;38.102;2022-11-11T16:46:14;88.72;;;39.08;;
74945;SDS011;63509;45.250;38.102;2022-11-11T16:52:11;81.20;;;40.22;;
74945;SDS011;63509;45.250;38.102;2022-11-11T16:54:58;78.80;;;37.30;;
74945;SDS011;63509;45.250;38.102;2022-11-11T16:57:43;69.57;;;31.00;;
74945;SDS011;63509;45.250;38.102;2022-11-11T17:00:28;78.22;;;30.27;;
74945;SDS011;63509;45.250;38.102;2022-11-11T17:03:14;55.13;;;26.23;;
74945;SDS011;63509;45.250;38.102;2022-11-11T17:06:05;66.68;;;27.27;;
74945;SDS011;63509;45.250;38.102;2022-11-11T17:08:51;60.53;;;26.40;;
74945;SDS011;63509;45.250;38.102;2022-11-11T17:14:24;55.92;;;24.33;;
74945;SDS011;63509;45.250;38.102;2022-11-11T17:17:10;54.53;;;23.30;;
74945;SDS011;63509;45.250;38.102;2022-11-11T17:19:55;66.85;;;24.92;;
74945;SDS011;63509;45.250;38.102;2022-11-11T17:25:37;59.35;;;22.92;;
74945;SDS011;63509;45.250;38.102;2022-11-11T17:28:22;57.10;;;24.30;;
74945;SDS011;63509;45.250;38.102;2022-11-11T17:31:07;57.00;;;22.40;;
74945;SDS011;63509;45.250;38.102;2022-11-11T17:33:53;54.42;;;22.05;;
74945;SDS011;63509;45.250;38.102;2022-11-11T17:36:37;60.78;;;23.05;;
74945;SDS011;63509;45.250;38.102;2022-11-11T17:39:22;66.97;;;23.70;;
74945;SDS011;63509;45.250;38.102;2022-11-11T17:42:06;72.43;;;23.15;;
74945;SDS011;63509;45.250;38.102;2022-11-11T17:44:51;64.82;;;21.92;;
74945;SDS011;63509;45.250;38.102;2022-11-11T17:47:36;78.63;;;23.05;;
74945;SDS011;63509;45.250;38.102;2022-11-11T17:50:20;69.25;;;24.40;;
74945;SDS011;63509;45.250;38.102;2022-11-11T17:53:05;91.53;;;26.83;;
74945;SDS011;63509;45.250;38.102;2022-11-11T17:55:50;72.90;;;25.23;;
74945;SDS011;63509;45.250;38.102;2022-11-11T17:58:34;71.32;;;23.98;;
74945;SDS011;63509;45.250;38.102;2022-11-11T18:01:19;66.63;;;24.73;;
74945;SDS011;63509;45.250;38.102;2022-11-11T18:04:04;85.43;;;28.70;;
74945;SDS011;63509;45.250;38.102;2022-11-11T18:06:49;81.53;;;26.80;;
74945;SDS011;63509;45.250;38.102;2022-11-11T18:09:34;72.15;;;23.98;;
74945;SDS011;63509;45.250;38.102;2022-11-11T18:12:19;69.43;;;23.48;;
74945;SDS011;63509;45.250;38.102;2022-11-11T18:15:04;66.93;;;23.38;;
74945;SDS011;63509;45.250;38.102;2022-11-11T18:17:50;73.15;;;23.00;;
74945;SDS011;63509;45.250;38.102;2022-11-11T18:20:35;67.50;;;23.98;;
74945;SDS011;63509;45.250;38.102;2022-11-11T18:23:19;72.47;;;25.83;;
74945;SDS011;63509;45.250;38.102;2022-11-11T18:26:04;62.75;;;23.60;;
74945;SDS011;63509;45.250;38.102;2022-11-11T18:28:50;69.32;;;23.63;;
74945;SDS011;63509;45.250;38.102;2022-11-11T18:31:35;65.75;;;24.77;;
74945;SDS011;63509;45.250;38.102;2022-11-11T18:34:19;87.72;;;26.45;;
74945;SDS011;63509;45.250;38.102;2022-11-11T18:37:05;89.35;;;27.65;;
74945;SDS011;63509;45.250;38.102;2022-11-11T18:39:51;74.88;;;28.00;;
74945;SDS011;63509;45.250;38.102;2022-11-11T18:42:36;76.55;;;26.50;;
74945;SDS011;63509;45.250;38.102;2022-11-11T18:45:20;71.72;;;26.55;;
74945;SDS011;63509;45.250;38.102;2022-11-11T18:48:07;85.78;;;28.13;;
74945;SDS011;63509;45.250;38.102;2022-11-11T18:50:52;77.85;;;26.70;;
74945;SDS011;63509;45.250;38.102;2022-11-11T18:53:38;92.55;;;29.20;;
74945;SDS011;63509;45.250;38.102;2022-11-11T18:56:25;83.65;;;29.58;;
74945;SDS011;63509;45.250;38.102;2022-11-11T18:59:11;93.40;;;29.88;;
74945;SDS011;63509;45.250;38.102;2022-11-11T19:01:55;87.97;;;29.15;;
74945;SDS011;63509;45.250;38.102;2022-11-11T19:04:40;82.03;;;27.98;;
74945;SDS011;63509;45.250;38.102;2022-11-11T19:07:25;93.97;;;30.13;;
74945;SDS011;63509;45.250;38.102;2022-11-11T19:10:09;80.55;;;26.00;;
74945;SDS011;63509;45.250;38.102;2022-11-11T19:12:54;97.72;;;28.98;;
74945;SDS011;63509;45.250;38.102;2022-11-11T19:15:38;87.35;;;29.70;;
74945;SDS011;63509;45.250;38.102;2022-11-11T19:18:24;92.38;;;29.52;;
74945;SDS011;63509;45.250;38.102;2022-11-11T19:21:10;71.72;;;27.10;;
74945;SDS011;63509;45.250;38.102;2022-11-11T19:24:01;74.25;;;27.05;;